Time;durP1;ratioP1;P1;durP2;ratioP2;P2;SDS_P1;SDS_P2;PMS_P1;PMS_P2;Temp;Humidity;BMP_temperature;BMP_pressure;BME280_temperature;BME280_humidity;BME280_pressure;Samples;Min_cycle;Max_cycle;Signal;HPM_P1;HPM_P2
2024/03/29 00:01:59;;;;;;;;;;;21.40;43.30;;;;;;5084996;28;19943;-43
2024/03/29 00:04:25;;;;;;;;;;;21.40;43.30;;;;;;5077246;28;19913;-43
2024/03/29 00:06:51;;;;;;;;;;;21.40;43.30;;;;;;5074696;28;20288;-47
2024/03/29 00:09:17;;;;;;;;;;;21.40;43.30;;;;;;5077395;28;19912;-42
2024/03/29 00:11:43;;;;;;;;;;;21.40;43.30;;;;;;5081723;28;19927;-42
2024/03/29 00:14:09;;;;;;;;;;;21.30;43.30;;;;;;5080190;28;19935;-42
2024/03/29 00:16:35;;;;;;;;;;;21.30;43.30;;;;;;5081395;28;19913;-42
2024/03/29 00:19:01;;;;;;;;;;;21.30;43.30;;;;;;5073104;28;19920;-43
2024/03/29 00:21:27;;;;;;;;;;;21.30;43.30;;;;;;5081135;28;19966;-44
2024/03/29 00:23:52;;;;;;;;;;;21.20;43.20;;;;;;5073514;28;20285;-44
2024/03/29 00:26:18;;;;;;;;;;;21.20;43.20;;;;;;5080416;28;19912;-41
2024/03/29 00:28:44;;;;;;;;;;;21.20;43.30;;;;;;5080993;28;19958;-41
2024/03/29 00:31:10;;;;;;;;;;;21.20;43.30;;;;;;5079943;28;19920;-40
2024/03/29 00:33:36;;;;;;;;;;;21.20;43.30;;;;;;5072272;28;19927;-42
2024/03/29 00:36:02;;;;;;;;;;;21.10;43.30;;;;;;5070625;28;19963;-43
2024/03/29 00:38:28;;;;;;;;;;;21.10;43.30;;;;;;5080758;28;19978;-45
2024/03/29 00:40:54;;;;;;;;;;;21.10;43.40;;;;;;5070154;28;20651;-42
2024/03/29 00:43:20;;;;;;;;;;;21.10;43.40;;;;;;5071210;28;19916;-44
2024/03/29 00:45:45;;;;;;;;;;;21.10;43.40;;;;;;5076106;28;19920;-44
2024/03/29 00:48:14;;;;;;;;;;;21.00;43.40;;;;;;5071629;28;19913;-40
2024/03/29 00:50:40;;;;;;;;;;;21.00;43.40;;;;;;5074969;28;19912;-43
2024/03/29 00:53:06;;;;;;;;;;;21.00;43.40;;;;;;5068402;28;19916;-43
2024/03/29 00:55:32;;;;;;;;;;;21.00;43.50;;;;;;5072755;28;19919;-44
2024/03/29 00:57:58;;;;;;;;;;;20.90;43.40;;;;;;5071952;28;19919;-43
2024/03/29 01:00:24;;;;;;;;;;;20.90;43.40;;;;;;5066729;28;20047;-43
2024/03/29 01:02:50;;;;;;;;;;;20.90;43.50;;;;;;5067893;28;19936;-42
2024/03/29 01:05:16;;;;;;;;;;;20.90;43.50;;;;;;5065535;28;19968;-42
2024/03/29 01:07:41;;;;;;;;;;;20.90;43.50;;;;;;5073712;28;19912;-44
2024/03/29 01:10:08;;;;;;;;;;;20.90;43.60;;;;;;5080673;28;19916;-42
2024/03/29 01:12:35;;;;;;;;;;;20.80;43.60;;;;;;5084799;28;19934;-47
2024/03/29 01:15:02;;;;;;;;;;;20.80;44.20;;;;;;5077090;28;19909;-42
2024/03/29 01:17:28;;;;;;;;;;;20.80;43.60;;;;;;5077535;28;19920;-41
2024/03/29 01:19:54;;;;;;;;;;;20.80;43.70;;;;;;5083688;28;19934;-44
2024/03/29 01:22:20;;;;;;;;;;;20.70;43.70;;;;;;5076721;28;20015;-40
2024/03/29 01:24:46;;;;;;;;;;;20.70;43.80;;;;;;5083957;28;19916;-41
2024/03/29 01:27:13;;;;;;;;;;;20.70;43.80;;;;;;5083623;28;19913;-41
2024/03/29 01:29:38;;;;;;;;;;;20.70;43.80;;;;;;5083869;28;19908;-41
2024/03/29 01:32:06;;;;;;;;;;;20.60;43.90;;;;;;5080486;28;19920;-44
2024/03/29 01:34:32;;;;;;;;;;;20.60;43.90;;;;;;5087361;28;20401;-42
2024/03/29 01:37:01;;;;;;;;;;;20.60;43.90;;;;;;5083921;28;20006;-41
2024/03/29 01:39:31;;;;;;;;;;;20.60;43.90;;;;;;5072734;28;19959;-43
2024/03/29 01:41:57;;;;;;;;;;;20.60;43.90;;;;;;5070545;28;19983;-42
2024/03/29 01:44:23;;;;;;;;;;;20.50;44.00;;;;;;5071506;28;19924;-44
2024/03/29 01:46:49;;;;;;;;;;;20.50;44.00;;;;;;5070669;28;19934;-45
2024/03/29 01:49:15;;;;;;;;;;;20.50;44.00;;;;;;5070152;28;19915;-42
2024/03/29 01:51:41;;;;;;;;;;;20.50;44.10;;;;;;5073034;28;19912;-40
2024/03/29 01:54:08;;;;;;;;;;;20.40;44.00;;;;;;5072654;28;19920;-44
2024/03/29 01:56:35;;;;;;;;;;;20.40;44.10;;;;;;5070810;28;19912;-41
2024/03/29 01:59:03;;;;;;;;;;;20.40;44.10;;;;;;5069177;28;20699;-45
2024/03/29 02:01:29;;;;;;;;;;;20.40;44.10;;;;;;5066319;28;19915;-43
2024/03/29 02:03:56;;;;;;;;;;;20.30;44.20;;;;;;5064285;28;19912;-43
2024/03/29 02:06:23;;;;;;;;;;;20.30;44.20;;;;;;5068511;28;19947;-43
2024/03/29 02:08:57;;;;;;;;;;;20.30;44.30;;;;;;5071816;28;19913;-44
2024/03/29 02:11:23;;;;;;;;;;;20.30;44.30;;;;;;5068735;28;19947;-41
2024/03/29 02:13:49;;;;;;;;;;;20.30;44.30;;;;;;5070561;28;19916;-41
2024/03/29 02:16:33;;;;;;;;;;;20.20;44.40;;;;;;5068605;28;19920;-43
2024/03/29 02:18:59;;;;;;;;;;;20.20;44.40;;;;;;5066429;28;20007;-44
2024/03/29 02:21:25;;;;;;;;;;;20.20;44.40;;;;;;5069220;28;19908;-42
2024/03/29 02:24:01;;;;;;;;;;;20.20;44.40;;;;;;5074181;28;19913;-42
2024/03/29 02:26:31;;;;;;;;;;;20.10;44.40;;;;;;5070693;28;19912;-43
2024/03/29 02:28:57;;;;;;;;;;;20.10;44.50;;;;;;5066038;28;20589;-42
2024/03/29 02:31:24;;;;;;;;;;;20.10;44.50;;;;;;5065200;28;19916;-42
2024/03/29 02:33:49;;;;;;;;;;;20.00;44.50;;;;;;5075089;28;19912;-43
2024/03/29 02:36:16;;;;;;;;;;;20.00;44.50;;;;;;5082024;28;19962;-42
2024/03/29 02:38:42;;;;;;;;;;;20.00;44.60;;;;;;5076207;28;19912;-42
2024/03/29 02:41:08;;;;;;;;;;;20.00;44.60;;;;;;5082502;28;19913;-43
2024/03/29 02:43:34;;;;;;;;;;;20.00;44.70;;;;;;5083529;28;20037;-44
2024/03/29 02:46:00;;;;;;;;;;;20.00;44.70;;;;;;5081864;28;20361;-44
2024/03/29 02:48:26;;;;;;;;;;;19.90;44.70;;;;;;5075615;28;19912;-41
2024/03/29 02:50:52;;;;;;;;;;;19.90;44.70;;;;;;5082309;28;20531;-43
2024/03/29 02:53:17;;;;;;;;;;;19.90;45.30;;;;;;5074936;28;19908;-41
2024/03/29 02:55:43;;;;;;;;;;;19.80;44.80;;;;;;5082421;28;19909;-42
2024/03/29 02:58:09;;;;;;;;;;;19.80;44.80;;;;;;5079968;28;19912;-41
2024/03/29 03:00:35;;;;;;;;;;;19.80;44.90;;;;;;5077075;28;19967;-41
2024/03/29 03:03:01;;;;;;;;;;;19.80;44.90;;;;;;5065438;28;20334;-44
2024/03/29 03:05:27;;;;;;;;;;;19.80;44.90;;;;;;5065082;28;19917;-42
2024/03/29 03:10:56;;;;;;;;;;;19.70;45.00;;;;;;5076813;28;19939;-40
2024/03/29 03:13:22;;;;;;;;;;;19.70;45.00;;;;;;5064527;28;20042;-41
2024/03/29 03:15:48;;;;;;;;;;;19.70;45.00;;;;;;5079859;28;19947;-41
2024/03/29 03:18:14;;;;;;;;;;;19.60;45.10;;;;;;5065060;28;20843;-43
2024/03/29 03:20:40;;;;;;;;;;;19.60;45.10;;;;;;5064828;28;19921;-45
2024/03/29 03:23:06;;;;;;;;;;;19.60;45.20;;;;;;5073358;28;20414;-41
2024/03/29 03:25:32;;;;;;;;;;;19.60;45.20;;;;;;5075494;28;19931;-41
2024/03/29 03:27:58;;;;;;;;;;;19.60;45.30;;;;;;5077656;28;20662;-41
2024/03/29 03:30:24;;;;;;;;;;;19.60;45.90;;;;;;5064562;28;19909;-42
2024/03/29 03:32:49;;;;;;;;;;;19.50;45.30;;;;;;5066283;28;19913;-43
2024/03/29 03:35:15;;;;;;;;;;;19.50;45.30;;;;;;5079513;28;19956;-42
2024/03/29 03:37:41;;;;;;;;;;;19.50;45.30;;;;;;5070266;28;19934;-44
2024/03/29 03:40:07;;;;;;;;;;;19.50;45.40;;;;;;5073370;28;19924;-42
2024/03/29 03:42:33;;;;;;;;;;;19.50;45.30;;;;;;5064442;28;19940;-41
2024/03/29 03:44:59;;;;;;;;;;;19.40;45.40;;;;;;5062826;28;19924;-42
2024/03/29 03:47:25;;;;;;;;;;;19.40;45.40;;;;;;5064199;28;20360;-43
2024/03/29 03:49:51;;;;;;;;;;;19.40;45.50;;;;;;5086330;28;19918;-43
2024/03/29 03:52:16;;;;;;;;;;;19.40;46.00;;;;;;5071703;28;19916;-42
2024/03/29 03:54:42;;;;;;;;;;;19.40;46.10;;;;;;5063738;28;19912;-43
2024/03/29 03:57:08;;;;;;;;;;;19.50;46.10;;;;;;5080156;28;19908;-42
2024/03/29 03:59:34;;;;;;;;;;;19.40;46.10;;;;;;5069012;28;19999;-43
2024/03/29 04:02:00;;;;;;;;;;;19.40;46.10;;;;;;5076283;28;20321;-41
2024/03/29 04:04:26;;;;;;;;;;;19.40;46.00;;;;;;5065003;28;19921;-47
2024/03/29 04:06:52;;;;;;;;;;;19.40;46.00;;;;;;5063608;28;19919;-43
2024/03/29 04:09:18;;;;;;;;;;;19.40;46.00;;;;;;5067406;28;19955;-42
2024/03/29 04:11:44;;;;;;;;;;;19.30;46.00;;;;;;5064536;28;19968;-43
2024/03/29 04:14:10;;;;;;;;;;;19.30;46.00;;;;;;5065759;28;20670;-42
2024/03/29 04:16:36;;;;;;;;;;;19.30;46.50;;;;;;5073775;28;19923;-44
2024/03/29 04:19:02;;;;;;;;;;;19.40;46.60;;;;;;5078768;28;19955;-43
2024/03/29 04:21:27;;;;;;;;;;;19.40;46.60;;;;;;5070822;28;19935;-43
2024/03/29 04:23:53;;;;;;;;;;;19.40;46.50;;;;;;5070735;28;19916;-43
2024/03/29 04:26:19;;;;;;;;;;;19.40;46.50;;;;;;5074285;28;19955;-45
2024/03/29 04:28:45;;;;;;;;;;;19.30;46.50;;;;;;5073845;28;19912;-43
2024/03/29 04:31:11;;;;;;;;;;;19.30;46.40;;;;;;5070973;28;19928;-44
2024/03/29 04:33:37;;;;;;;;;;;19.30;46.40;;;;;;5066006;28;20393;-41
2024/03/29 04:36:03;;;;;;;;;;;19.30;46.40;;;;;;5071414;28;19909;-44
2024/03/29 04:38:29;;;;;;;;;;;19.30;46.40;;;;;;5080174;28;19908;-41
2024/03/29 04:40:56;;;;;;;;;;;19.30;46.70;;;;;;5077679;28;19912;-41
2024/03/29 04:43:22;;;;;;;;;;;19.40;46.90;;;;;;5063527;28;19912;-47
2024/03/29 04:45:48;;;;;;;;;;;19.40;46.90;;;;;;5069748;28;19928;-48
2024/03/29 04:48:14;;;;;;;;;;;19.40;47.40;;;;;;5078222;28;19912;-47
2024/03/29 04:50:40;;;;;;;;;;;19.30;46.80;;;;;;5075979;28;19912;-41
2024/03/29 04:53:08;;;;;;;;;;;19.30;46.70;;;;;;5071253;28;19962;-46
2024/03/29 04:55:34;;;;;;;;;;;19.30;46.70;;;;;;5078948;28;19948;-41
2024/03/29 04:58:00;;;;;;;;;;;19.30;46.70;;;;;;5080561;28;19916;-43
2024/03/29 05:00:26;;;;;;;;;;;19.20;46.80;;;;;;5080314;28;19920;-45
2024/03/29 05:02:52;;;;;;;;;;;19.30;47.00;;;;;;5077856;28;20657;-42
2024/03/29 05:05:17;;;;;;;;;;;19.30;47.10;;;;;;5073676;28;19909;-45
2024/03/29 05:07:43;;;;;;;;;;;19.30;47.00;;;;;;5075257;28;19932;-45
2024/03/29 05:10:09;;;;;;;;;;;19.30;47.00;;;;;;5074528;28;19912;-46
2024/03/29 05:12:35;;;;;;;;;;;19.30;47.00;;;;;;5080820;28;20297;-44
2024/03/29 05:15:01;;;;;;;;;;;19.30;46.90;;;;;;5079858;28;19912;-43
2024/03/29 05:17:27;;;;;;;;;;;19.30;46.90;;;;;;5077242;28;19924;-45
2024/03/29 05:19:54;;;;;;;;;;;19.20;46.90;;;;;;5063245;28;19917;-43
2024/03/29 05:22:19;;;;;;;;;;;19.20;46.90;;;;;;5072564;28;19920;-45
2024/03/29 05:24:45;;;;;;;;;;;19.20;47.20;;;;;;5080196;28;19912;-44
2024/03/29 05:27:11;;;;;;;;;;;19.30;47.30;;;;;;5084413;28;20534;-43
2024/03/29 05:29:37;;;;;;;;;;;19.30;47.30;;;;;;5084182;28;19912;-44
2024/03/29 05:32:04;;;;;;;;;;;19.20;47.20;;;;;;5074014;28;19920;-42
2024/03/29 05:34:30;;;;;;;;;;;19.20;47.10;;;;;;5077630;28;20648;-44
2024/03/29 05:36:56;;;;;;;;;;;19.20;47.10;;;;;;5083671;28;19951;-42
2024/03/29 05:39:22;;;;;;;;;;;19.20;47.10;;;;;;5071585;28;19947;-42
2024/03/29 05:41:48;;;;;;;;;;;19.20;47.30;;;;;;5075909;28;19984;-44
2024/03/29 05:44:13;;;;;;;;;;;19.20;47.40;;;;;;5073304;28;20040;-43
2024/03/29 05:46:40;;;;;;;;;;;19.30;47.40;;;;;;5072197;28;19975;-44
2024/03/29 05:49:06;;;;;;;;;;;19.30;47.40;;;;;;5075463;28;20396;-44
2024/03/29 05:51:33;;;;;;;;;;;19.20;47.30;;;;;;5071236;28;19940;-44
2024/03/29 05:54:00;;;;;;;;;;;19.20;47.30;;;;;;5069412;28;19908;-44
2024/03/29 05:56:25;;;;;;;;;;;19.20;47.30;;;;;;5066191;28;19980;-42
2024/03/29 05:58:51;;;;;;;;;;;19.20;47.30;;;;;;5067229;28;19952;-42
2024/03/29 06:01:17;;;;;;;;;;;19.20;47.30;;;;;;5072375;28;19912;-46
2024/03/29 06:03:43;;;;;;;;;;;19.20;47.50;;;;;;5069769;28;20377;-46
2024/03/29 06:06:17;;;;;;;;;;;19.30;47.60;;;;;;5066150;28;20363;-42
2024/03/29 06:08:43;;;;;;;;;;;19.30;47.60;;;;;;5075578;28;20007;-43
2024/03/29 06:11:09;;;;;;;;;;;19.20;47.50;;;;;;5068289;28;20273;-42
2024/03/29 06:19:08;;;;;;;;;;;19.20;47.40;;;;;;5071137;28;19963;-45
2024/03/29 06:21:40;;;;;;;;;;;19.20;47.60;;;;;;5076980;28;19932;-43
2024/03/29 06:24:07;;;;;;;;;;;19.20;47.70;;;;;;5068822;28;19963;-45
2024/03/29 06:26:33;;;;;;;;;;;19.20;47.60;;;;;;5082840;28;19908;-43
2024/03/29 06:29:00;;;;;;;;;;;19.20;47.60;;;;;;5074538;28;19916;-45
2024/03/29 06:31:26;;;;;;;;;;;19.20;47.60;;;;;;5079681;28;19912;-43
2024/03/29 06:33:52;;;;;;;;;;;19.20;47.60;;;;;;5074296;28;19919;-43
2024/03/29 06:36:18;;;;;;;;;;;19.20;47.50;;;;;;5069124;28;19915;-44
2024/03/29 06:38:44;;;;;;;;;;;19.20;47.60;;;;;;5079531;28;19920;-42
2024/03/29 06:41:10;;;;;;;;;;;19.10;47.50;;;;;;5081505;28;19935;-49
2024/03/29 06:43:36;;;;;;;;;;;19.20;47.80;;;;;;5071951;28;20654;-43
2024/03/29 06:46:04;;;;;;;;;;;19.20;47.80;;;;;;5072601;28;19925;-45
2024/03/29 06:48:31;;;;;;;;;;;19.20;47.70;;;;;;5070464;28;19959;-41
2024/03/29 06:50:58;;;;;;;;;;;19.20;47.70;;;;;;5068364;28;19916;-44
2024/03/29 06:53:24;;;;;;;;;;;19.20;47.70;;;;;;5075050;28;19915;-43
2024/03/29 06:55:50;;;;;;;;;;;19.20;47.70;;;;;;5067884;28;19912;-44
2024/03/29 06:58:16;;;;;;;;;;;19.10;47.60;;;;;;5071677;28;19963;-45
2024/03/29 07:00:43;;;;;;;;;;;19.10;47.70;;;;;;5071253;28;19920;-44
2024/03/29 07:03:09;;;;;;;;;;;19.10;47.80;;;;;;5067047;28;19913;-42
2024/03/29 07:05:35;;;;;;;;;;;19.20;47.80;;;;;;5072660;28;19959;-43
2024/03/29 07:08:01;;;;;;;;;;;19.20;47.80;;;;;;5065549;28;19919;-43
2024/03/29 07:10:27;;;;;;;;;;;19.20;47.80;;;;;;5071860;28;19916;-44
2024/03/29 07:12:53;;;;;;;;;;;19.10;47.70;;;;;;5075732;28;19909;-44
2024/03/29 07:15:19;;;;;;;;;;;19.10;47.70;;;;;;5072616;28;19951;-43
2024/03/29 07:17:46;;;;;;;;;;;19.10;47.70;;;;;;5072103;28;19928;-45
2024/03/29 07:20:12;;;;;;;;;;;19.10;47.80;;;;;;5075469;28;20476;-47
2024/03/29 07:22:38;;;;;;;;;;;19.10;47.90;;;;;;5082708;28;19916;-42
2024/03/29 07:25:04;;;;;;;;;;;19.20;47.90;;;;;;5074244;28;19919;-45
2024/03/29 07:27:33;;;;;;;;;;;19.20;47.90;;;;;;5072397;28;19956;-44
2024/03/29 07:29:59;;;;;;;;;;;19.10;47.90;;;;;;5079783;28;19908;-43
2024/03/29 07:32:25;;;;;;;;;;;19.10;47.80;;;;;;5066289;28;19958;-42
2024/03/29 07:34:51;;;;;;;;;;;19.10;47.80;;;;;;5071692;28;19912;-43
2024/03/29 07:37:18;;;;;;;;;;;19.00;47.80;;;;;;5074944;28;20003;-47
2024/03/29 07:39:44;;;;;;;;;;;19.10;48.00;;;;;;5072900;28;19921;-44
2024/03/29 07:42:10;;;;;;;;;;;19.10;48.10;;;;;;5065112;28;19927;-44
2024/03/29 07:44:36;;;;;;;;;;;19.10;48.00;;;;;;5071740;28;20627;-43
2024/03/29 07:47:02;;;;;;;;;;;19.10;48.00;;;;;;5076758;28;19919;-48
2024/03/29 07:49:28;;;;;;;;;;;19.10;48.00;;;;;;5075568;28;19912;-45
2024/03/29 07:51:53;;;;;;;;;;;19.10;48.00;;;;;;5066946;28;19975;-45
2024/03/29 07:54:19;;;;;;;;;;;19.10;48.00;;;;;;5072409;28;19912;-44
2024/03/29 07:56:45;;;;;;;;;;;19.00;48.00;;;;;;5074467;28;19920;-41
2024/03/29 07:59:11;;;;;;;;;;;19.00;48.10;;;;;;5073835;28;19962;-41
2024/03/29 08:01:37;;;;;;;;;;;19.10;48.10;;;;;;5069868;28;19970;-41
2024/03/29 08:04:03;;;;;;;;;;;19.10;48.10;;;;;;5076345;28;19909;-42
2024/03/29 08:06:29;;;;;;;;;;;19.10;48.10;;;;;;5069959;28;19913;-43
2024/03/29 08:08:55;;;;;;;;;;;19.10;48.00;;;;;;5076361;28;19934;-48
2024/03/29 08:11:21;;;;;;;;;;;19.00;48.00;;;;;;5072952;28;19912;-44
2024/03/29 08:13:47;;;;;;;;;;;19.00;48.00;;;;;;5073719;28;19927;-43
2024/03/29 08:16:12;;;;;;;;;;;19.10;48.20;;;;;;5071566;28;19958;-43
2024/03/29 08:18:38;;;;;;;;;;;19.10;48.20;;;;;;5069987;28;19909;-44
2024/03/29 08:21:10;;;;;;;;;;;19.10;48.20;;;;;;5064400;28;19976;-45
2024/03/29 08:23:38;;;;;;;;;;;19.10;48.20;;;;;;5078547;28;20003;-42
2024/03/29 08:26:04;;;;;;;;;;;19.10;48.20;;;;;;5071754;28;19948;-43
2024/03/29 08:28:29;;;;;;;;;;;19.10;48.20;;;;;;5063263;28;19954;-44
2024/03/29 08:31:03;;;;;;;;;;;19.00;48.10;;;;;;5070262;28;19991;-44
2024/03/29 08:33:30;;;;;;;;;;;19.00;48.20;;;;;;5073588;28;19909;-43
2024/03/29 08:35:56;;;;;;;;;;;19.00;48.30;;;;;;5068872;28;19971;-43
2024/03/29 08:38:22;;;;;;;;;;;19.10;48.30;;;;;;5070792;28;19935;-47
2024/03/29 08:40:48;;;;;;;;;;;19.10;48.30;;;;;;5064813;28;19928;-43
2024/03/29 08:43:23;;;;;;;;;;;19.10;48.30;;;;;;5074755;28;19971;-45
2024/03/29 08:45:49;;;;;;;;;;;19.00;48.30;;;;;;5063253;28;19921;-45
2024/03/29 08:48:15;;;;;;;;;;;19.00;48.30;;;;;;5070109;28;19916;-45
2024/03/29 08:50:41;;;;;;;;;;;19.00;48.70;;;;;;5076267;28;19962;-46
2024/03/29 08:53:07;;;;;;;;;;;19.00;48.40;;;;;;5072698;28;19978;-48
2024/03/29 08:55:33;;;;;;;;;;;19.10;48.40;;;;;;5073323;28;19912;-43
2024/03/29 08:57:59;;;;;;;;;;;19.10;48.40;;;;;;5067462;28;19931;-46
2024/03/29 09:00:28;;;;;;;;;;;19.00;48.40;;;;;;5074562;28;19926;-43
2024/03/29 09:02:56;;;;;;;;;;;19.00;48.40;;;;;;5069436;28;19912;-43
2024/03/29 09:05:22;;;;;;;;;;;19.00;48.40;;;;;;5069813;28;19912;-43
2024/03/29 09:07:48;;;;;;;;;;;19.00;48.30;;;;;;5071858;28;19980;-43
2024/03/29 09:10:14;;;;;;;;;;;19.00;48.50;;;;;;5077344;28;19919;-43
2024/03/29 09:12:40;;;;;;;;;;;19.00;48.50;;;;;;5079091;28;19912;-45
2024/03/29 09:15:10;;;;;;;;;;;19.00;48.40;;;;;;5076592;28;19954;-42
2024/03/29 09:17:36;;;;;;;;;;;19.00;48.40;;;;;;5079631;28;19922;-42
2024/03/29 09:20:04;;;;;;;;;;;19.00;48.40;;;;;;5076174;28;20003;-45
2024/03/29 09:22:30;;;;;;;;;;;19.00;48.40;;;;;;5067609;28;19972;-43
2024/03/29 09:24:56;;;;;;;;;;;18.90;48.30;;;;;;5067321;28;19931;-43
2024/03/29 09:27:22;;;;;;;;;;;18.90;48.50;;;;;;5069831;28;19922;-43
2024/03/29 09:29:48;;;;;;;;;;;19.00;48.50;;;;;;5070753;28;19931;-45
2024/03/29 09:32:17;;;;;;;;;;;19.00;48.40;;;;;;5079441;28;20011;-43
2024/03/29 09:34:44;;;;;;;;;;;19.00;48.40;;;;;;5075264;28;19934;-44
2024/03/29 09:37:10;;;;;;;;;;;19.00;48.40;;;;;;5076471;28;20011;-44
2024/03/29 09:39:35;;;;;;;;;;;19.00;48.40;;;;;;5075784;28;19932;-43
2024/03/29 09:42:04;;;;;;;;;;;18.90;48.30;;;;;;5073338;28;19916;-44
2024/03/29 09:44:32;;;;;;;;;;;19.00;48.60;;;;;;5077146;28;20496;-43
2024/03/29 09:46:59;;;;;;;;;;;19.00;48.50;;;;;;5067068;28;19920;-43
2024/03/29 09:49:26;;;;;;;;;;;19.00;48.50;;;;;;5055399;28;19939;-43
2024/03/29 09:51:52;;;;;;;;;;;19.00;48.50;;;;;;5075526;28;19920;-44
2024/03/29 09:54:17;;;;;;;;;;;19.00;48.50;;;;;;5082017;28;19912;-43
2024/03/29 09:56:43;;;;;;;;;;;18.90;48.40;;;;;;5077941;28;20352;-42
2024/03/29 09:59:09;;;;;;;;;;;18.90;48.40;;;;;;5074489;28;19928;-43
2024/03/29 10:01:35;;;;;;;;;;;18.90;48.50;;;;;;5076006;28;19916;-42
2024/03/29 10:04:02;;;;;;;;;;;18.90;48.60;;;;;;5075221;28;19919;-45
2024/03/29 10:06:28;;;;;;;;;;;19.00;48.50;;;;;;5083833;28;19916;-42
2024/03/29 10:08:57;;;;;;;;;;;19.00;48.50;;;;;;5080699;28;19974;-43
2024/03/29 10:11:24;;;;;;;;;;;19.00;48.50;;;;;;5082203;28;19908;-43
2024/03/29 10:13:50;;;;;;;;;;;18.90;48.50;;;;;;5075924;28;19944;-43
2024/03/29 10:16:21;;;;;;;;;;;18.90;48.50;;;;;;5081756;28;19947;-43
2024/03/29 10:18:47;;;;;;;;;;;18.90;48.50;;;;;;5073038;28;19916;-44
2024/03/29 10:21:14;;;;;;;;;;;18.90;48.60;;;;;;5073410;28;19921;-45
2024/03/29 10:23:41;;;;;;;;;;;19.00;48.60;;;;;;5077771;28;19912;-42
2024/03/29 10:26:06;;;;;;;;;;;19.00;48.60;;;;;;5074978;28;19913;-44
2024/03/29 10:28:36;;;;;;;;;;;19.00;48.60;;;;;;5083002;28;19940;-44
2024/03/29 10:31:05;;;;;;;;;;;18.90;48.50;;;;;;5082156;28;19967;-44
2024/03/29 10:33:31;;;;;;;;;;;18.90;48.50;;;;;;5074887;28;19913;-43
2024/03/29 10:35:58;;;;;;;;;;;18.90;48.60;;;;;;5079661;28;19938;-43
2024/03/29 10:38:26;;;;;;;;;;;18.90;48.70;;;;;;5082644;28;19955;-43
2024/03/29 10:40:53;;;;;;;;;;;18.90;48.60;;;;;;5079006;28;19920;-43
2024/03/29 10:43:19;;;;;;;;;;;19.00;48.60;;;;;;5073410;28;19919;-45
2024/03/29 10:45:48;;;;;;;;;;;18.90;48.50;;;;;;5076270;28;19963;-44
2024/03/29 10:48:15;;;;;;;;;;;18.90;48.50;;;;;;5072799;28;19919;-43
2024/03/29 10:50:42;;;;;;;;;;;18.90;48.50;;;;;;5072311;28;19913;-46
2024/03/29 10:53:08;;;;;;;;;;;18.80;48.50;;;;;;5073011;28;19912;-45
2024/03/29 10:55:34;;;;;;;;;;;18.90;48.70;;;;;;5070945;28;20051;-45
2024/03/29 10:58:00;;;;;;;;;;;18.90;48.60;;;;;;5064391;28;19916;-46
2024/03/29 11:00:27;;;;;;;;;;;19.00;48.60;;;;;;5075048;28;19926;-48
2024/03/29 11:03:06;;;;;;;;;;;18.90;48.50;;;;;;5069412;28;19908;-44
2024/03/29 11:05:32;;;;;;;;;;;18.90;48.60;;;;;;5065203;28;19913;-44
2024/03/29 11:07:58;;;;;;;;;;;18.80;48.50;;;;;;5071305;28;19973;-42
2024/03/29 11:10:33;;;;;;;;;;;18.80;48.60;;;;;;5064476;28;19908;-44
2024/03/29 11:13:01;;;;;;;;;;;18.90;48.70;;;;;;5078299;28;19909;-44
2024/03/29 11:15:30;;;;;;;;;;;18.90;48.70;;;;;;5063983;28;19948;-45
2024/03/29 11:17:56;;;;;;;;;;;18.90;48.60;;;;;;5064788;28;19913;-44
2024/03/29 11:20:34;;;;;;;;;;;18.90;48.70;;;;;;5073407;28;19920;-45
2024/03/29 11:23:05;;;;;;;;;;;18.90;48.70;;;;;;5066013;28;19908;-43
2024/03/29 11:25:44;;;;;;;;;;;18.80;48.60;;;;;;5082339;28;19920;-45
2024/03/29 11:28:17;;;;;;;;;;;18.80;48.80;;;;;;5067212;28;20712;-43
2024/03/29 11:30:45;;;;;;;;;;;18.90;48.80;;;;;;5075383;28;19920;-44
2024/03/29 11:33:28;;;;;;;;;;;18.90;48.70;;;;;;5078002;28;19912;-47
2024/03/29 11:35:53;;;;;;;;;;;18.90;48.70;;;;;;5071809;28;19920;-45
2024/03/29 11:38:19;;;;;;;;;;;18.90;48.70;;;;;;5073900;28;19912;-43
2024/03/29 11:40:55;;;;;;;;;;;18.80;48.70;;;;;;5071239;28;19926;-42
2024/03/29 11:43:21;;;;;;;;;;;18.80;48.80;;;;;;5064888;28;19912;-43
2024/03/29 11:45:47;;;;;;;;;;;18.80;48.80;;;;;;5064711;28;19921;-42
2024/03/29 11:48:13;;;;;;;;;;;18.90;48.80;;;;;;5064822;28;19950;-44
2024/03/29 11:50:39;;;;;;;;;;;18.90;48.70;;;;;;5075020;28;19912;-45
2024/03/29 11:53:05;;;;;;;;;;;18.90;48.70;;;;;;5072644;28;19916;-42
2024/03/29 11:55:34;;;;;;;;;;;18.90;48.70;;;;;;5078478;28;20058;-44
2024/03/29 11:57:59;;;;;;;;;;;18.80;48.70;;;;;;5071242;28;19943;-46
2024/03/29 12:00:29;;;;;;;;;;;18.80;48.80;;;;;;5074566;28;19942;-43
2024/03/29 12:02:57;;;;;;;;;;;18.90;48.80;;;;;;5069215;28;19913;-43
2024/03/29 12:05:23;;;;;;;;;;;18.90;48.80;;;;;;5070431;28;19909;-43
2024/03/29 12:07:49;;;;;;;;;;;18.90;48.70;;;;;;5077736;28;19999;-44
2024/03/29 12:10:15;;;;;;;;;;;18.90;48.80;;;;;;5070548;28;19909;-43
2024/03/29 12:12:42;;;;;;;;;;;18.80;48.70;;;;;;5080929;28;19981;-44
2024/03/29 12:15:08;;;;;;;;;;;18.80;48.70;;;;;;5079755;28;19966;-44
2024/03/29 12:17:34;;;;;;;;;;;18.80;48.90;;;;;;5074256;28;19939;-46
2024/03/29 12:20:10;;;;;;;;;;;18.90;48.90;;;;;;5072876;28;20329;-44
2024/03/29 12:22:36;;;;;;;;;;;18.90;48.80;;;;;;5076741;28;19988;-43
2024/03/29 12:25:02;;;;;;;;;;;18.90;48.80;;;;;;5072746;28;19947;-43
2024/03/29 12:27:28;;;;;;;;;;;18.90;48.80;;;;;;5062961;28;20000;-45
2024/03/29 12:29:54;;;;;;;;;;;18.80;48.80;;;;;;5075892;28;19912;-43
2024/03/29 12:32:20;;;;;;;;;;;18.80;48.80;;;;;;5068005;28;19963;-44
2024/03/29 12:34:46;;;;;;;;;;;18.80;48.90;;;;;;5063569;28;19913;-46
2024/03/29 12:37:12;;;;;;;;;;;18.90;48.90;;;;;;5062663;28;19916;-46
2024/03/29 12:39:41;;;;;;;;;;;18.90;48.80;;;;;;5066765;28;19916;-44
2024/03/29 12:42:07;;;;;;;;;;;18.90;48.80;;;;;;5065998;28;19939;-45
2024/03/29 12:44:33;;;;;;;;;;;18.90;48.80;;;;;;5066216;28;19924;-43
2024/03/29 12:46:59;;;;;;;;;;;18.80;48.80;;;;;;5066606;28;19908;-45
2024/03/29 12:49:25;;;;;;;;;;;18.80;48.80;;;;;;5086761;28;19908;-44
2024/03/29 12:51:51;;;;;;;;;;;18.90;48.90;;;;;;5065782;28;20296;-45
2024/03/29 12:54:18;;;;;;;;;;;18.90;48.90;;;;;;5065203;28;19917;-42
2024/03/29 12:56:45;;;;;;;;;;;18.90;48.80;;;;;;5067961;28;20012;-44
2024/03/29 12:59:11;;;;;;;;;;;18.90;48.80;;;;;;5072432;28;19916;-46
2024/03/29 13:01:38;;;;;;;;;;;18.90;48.80;;;;;;5066966;28;19958;-43
2024/03/29 13:04:04;;;;;;;;;;;18.80;48.80;;;;;;5067744;28;19916;-43
2024/03/29 13:06:30;;;;;;;;;;;18.90;48.90;;;;;;5061141;28;19915;-44
2024/03/29 13:08:56;;;;;;;;;;;18.90;48.90;;;;;;5066440;28;19944;-42
2024/03/29 13:11:22;;;;;;;;;;;18.90;48.90;;;;;;5069869;28;19919;-43
2024/03/29 13:13:48;;;;;;;;;;;18.90;48.90;;;;;;5070898;28;19909;-42
2024/03/29 13:16:14;;;;;;;;;;;18.90;48.80;;;;;;5067759;28;19912;-42
2024/03/29 13:18:40;;;;;;;;;;;18.90;48.80;;;;;;5067645;28;19927;-46
2024/03/29 13:21:06;;;;;;;;;;;18.90;48.80;;;;;;5069828;28;19936;-42
2024/03/29 13:23:32;;;;;;;;;;;18.90;48.90;;;;;;5069129;28;19912;-43
2024/03/29 13:26:00;;;;;;;;;;;18.90;48.90;;;;;;5068467;28;19930;-43
2024/03/29 13:28:25;;;;;;;;;;;19.00;48.90;;;;;;5064070;28;19916;-42
2024/03/29 13:30:51;;;;;;;;;;;19.00;48.90;;;;;;5068577;28;19913;-45
2024/03/29 13:33:17;;;;;;;;;;;19.00;48.90;;;;;;5076108;28;19944;-42
2024/03/29 13:35:44;;;;;;;;;;;19.00;48.90;;;;;;5075878;28;19919;-43
2024/03/29 13:38:10;;;;;;;;;;;19.00;48.80;;;;;;5064784;28;19916;-43
2024/03/29 13:40:36;;;;;;;;;;;19.00;48.80;;;;;;5076308;28;19920;-42
2024/03/29 13:43:02;;;;;;;;;;;19.00;48.90;;;;;;5066874;28;19919;-45
2024/03/29 13:45:28;;;;;;;;;;;19.00;48.90;;;;;;5076973;28;20363;-41
2024/03/29 13:47:55;;;;;;;;;;;19.10;49.00;;;;;;5080420;28;19918;-42
2024/03/29 13:50:21;;;;;;;;;;;19.10;48.90;;;;;;5071828;28;19920;-44
2024/03/29 13:52:47;;;;;;;;;;;19.10;48.90;;;;;;5067084;28;19917;-43
2024/03/29 13:55:13;;;;;;;;;;;19.10;48.90;;;;;;5074617;28;19917;-43
2024/03/29 13:57:39;;;;;;;;;;;19.10;48.90;;;;;;5084079;28;19951;-45
2024/03/29 14:00:06;;;;;;;;;;;19.10;48.80;;;;;;5074488;28;19931;-44
2024/03/29 14:02:32;;;;;;;;;;;19.10;48.90;;;;;;5074381;28;19916;-44
2024/03/29 14:04:58;;;;;;;;;;;19.20;49.00;;;;;;5076260;28;20029;-44
2024/03/29 14:07:24;;;;;;;;;;;19.30;48.90;;;;;;5076764;28;19919;-43
2024/03/29 14:09:50;;;;;;;;;;;19.30;48.90;;;;;;5080233;28;19943;-41
2024/03/29 14:12:18;;;;;;;;;;;19.20;48.80;;;;;;5082775;28;19982;-44
2024/03/29 14:14:46;;;;;;;;;;;19.20;48.80;;;;;;5083182;28;19909;-45
2024/03/29 14:17:12;;;;;;;;;;;19.20;48.80;;;;;;5077869;28;19971;-45
2024/03/29 14:19:38;;;;;;;;;;;19.30;48.80;;;;;;5081750;28;19920;-43
2024/03/29 14:22:05;;;;;;;;;;;19.30;48.80;;;;;;5083024;28;19981;-45